Time;durP1;ratioP1;P1;durP2;ratioP2;P2;SDS_P1;SDS_P2;PMS_P1;PMS_P2;Temp;Humidity;BMP_temperature;BMP_pressure;BME280_temperature;BME280_humidity;BME280_pressure;Samples;Min_cycle;Max_cycle;Signal;HPM_P1;HPM_P2
2022/01/15 00:02:13;;;;;;;19.83;7.43;;;6.10;83.40;;;;;;6230589;28;20545;-64
2022/01/15 00:05:16;;;;;;;8.20;7.40;;;6.10;83.50;;;;;;6239060;28;20432;-63
2022/01/15 00:08:19;;;;;;;11.23;8.23;;;6.00;83.90;;;;;;6238590;28;20795;-64
2022/01/15 00:11:22;;;;;;;8.63;7.20;;;6.00;83.90;;;;;;6239694;28;20486;-63
2022/01/15 00:14:32;;;;;;;8.83;7.20;;;5.90;84.10;;;;;;6240448;28;20924;-63
2022/01/15 00:17:46;;;;;;;8.70;7.00;;;5.90;84.40;;;;;;6237697;28;20475;-64
2022/01/15 00:20:49;;;;;;;7.00;6.30;;;5.80;85.60;;;;;;6238724;28;20853;-64
2022/01/15 00:23:53;;;;;;;8.33;6.87;;;5.70;85.50;;;;;;6240503;28;20466;-64
2022/01/15 00:26:56;;;;;;;8.53;7.20;;;5.70;86.50;;;;;;6238122;28;20486;-64
2022/01/15 00:30:00;;;;;;;8.83;7.30;;;5.60;86.60;;;;;;6239841;28;20479;-64
2022/01/15 00:33:03;;;;;;;9.67;7.70;;;5.60;87.00;;;;;;6239439;28;20479;-63
2022/01/15 00:36:07;;;;;;;8.40;7.10;;;5.50;87.90;;;;;;6238739;28;20509;-63
2022/01/15 00:39:10;;;;;;;9.80;8.57;;;5.40;88.60;;;;;;6238694;28;20490;-64
2022/01/15 00:42:14;;;;;;;11.50;7.90;;;5.40;89.40;;;;;;6251272;28;20470;-65
2022/01/15 00:45:21;;;;;;;9.00;7.73;;;5.30;90.50;;;;;;6250871;28;20470;-64
2022/01/15 00:48:25;;;;;;;7.20;6.50;;;5.30;90.30;;;;;;6250814;28;21069;-64
2022/01/15 00:51:28;;;;;;;8.77;7.87;;;5.40;90.30;;;;;;6250614;28;20788;-64
2022/01/15 00:54:31;;;;;;;7.10;6.50;;;5.50;90.20;;;;;;6250716;28;20467;-64
2022/01/15 00:57:34;;;;;;;9.30;6.43;;;5.50;90.00;;;;;;6250776;28;20808;-64
2022/01/15 01:00:39;;;;;;;6.90;6.30;;;5.50;89.60;;;;;;6250589;28;20485;-64
2022/01/15 01:03:42;;;;;;;8.93;6.93;;;5.50;89.50;;;;;;6250345;28;20919;-64
2022/01/15 01:06:45;;;;;;;11.20;6.80;;;5.50;89.70;;;;;;6250516;28;20497;-63
2022/01/15 01:10:02;;;;;;;8.43;7.47;;;5.50;89.80;;;;;;6223855;28;20484;-64
2022/01/15 01:13:17;;;;;;;9.70;7.03;;;5.50;89.80;;;;;;6235685;28;20491;-64
2022/01/15 01:23:02;;;;;;;9.60;6.20;;;5.30;90.30;;;;;;6225006;28;20465;-63
2022/01/15 01:26:10;;;;;;;7.50;6.30;;;5.20;90.10;;;;;;6248679;28;20838;-63
2022/01/15 01:29:29;;;;;;;7.00;5.67;;;5.20;90.10;;;;;;6248964;28;20478;-64
2022/01/15 01:32:45;;;;;;;8.20;6.20;;;5.20;90.10;;;;;;6230513;28;20955;-64
2022/01/15 01:36:02;;;;;;;7.10;6.10;;;5.10;90.20;;;;;;6225617;28;20792;-64
2022/01/15 01:39:11;;;;;;;9.70;5.80;;;5.10;90.30;;;;;;6224976;28;20480;-65
2022/01/15 01:42:34;;;;;;;6.40;5.80;;;5.00;90.30;;;;;;6236374;28;20796;-64
2022/01/15 01:45:40;;;;;;;6.50;5.93;;;5.00;90.40;;;;;;6240764;28;20486;-64
2022/01/15 01:48:45;;;;;;;8.63;5.90;;;5.00;90.40;;;;;;6245214;28;20530;-64
2022/01/15 01:51:49;;;;;;;8.93;5.63;;;4.90;90.10;;;;;;6225550;28;20488;-64
2022/01/15 01:54:53;;;;;;;6.83;4.57;;;4.90;90.10;;;;;;6225889;28;20476;-65
2022/01/15 01:57:58;;;;;;;7.07;5.23;;;4.80;90.20;;;;;;6236181;28;20508;-65
2022/01/15 02:01:01;;;;;;;5.80;4.77;;;4.80;90.30;;;;;;6250052;28;20505;-65
2022/01/15 02:04:06;;;;;;;6.23;5.50;;;4.70;90.30;;;;;;6249745;28;20463;-65
2022/01/15 02:07:10;;;;;;;9.17;6.00;;;4.70;90.60;;;;;;6249843;28;20467;-66
2022/01/15 02:10:15;;;;;;;9.10;5.53;;;4.70;90.80;;;;;;6249434;28;20481;-65
2022/01/15 02:13:19;;;;;;;8.50;6.10;;;4.70;90.90;;;;;;6249829;28;20540;-66
2022/01/15 02:16:23;;;;;;;7.60;6.80;;;4.70;90.90;;;;;;6227311;28;20471;-65
2022/01/15 02:19:31;;;;;;;7.47;6.47;;;4.60;90.90;;;;;;6225174;28;20479;-65
2022/01/15 02:25:57;;;;;;;7.00;5.90;;;4.60;91.10;;;;;;6246612;28;20479;-65
2022/01/15 02:29:02;;;;;;;11.43;6.50;;;4.50;91.10;;;;;;6249084;28;20559;-66
2022/01/15 02:32:06;;;;;;;8.50;6.10;;;4.50;91.20;;;;;;6246838;28;20984;-63
2022/01/15 02:35:13;;;;;;;8.67;6.70;;;4.50;91.30;;;;;;6246714;28;20459;-63
2022/01/15 02:38:16;;;;;;;7.50;6.07;;;4.60;91.50;;;;;;6248757;28;20427;-63
2022/01/15 02:41:27;;;;;;;8.33;5.90;;;4.40;91.50;;;;;;6248531;28;20467;-63
2022/01/15 02:44:37;;;;;;;7.20;6.50;;;4.50;91.60;;;;;;6248547;28;20506;-64
2022/01/15 02:51:03;;;;;;;6.53;5.53;;;4.40;91.70;;;;;;6249616;28;20486;-64
2022/01/15 02:54:07;;;;;;;7.00;5.80;;;4.40;91.90;;;;;;6248843;28;20989;-64
2022/01/15 02:57:10;;;;;;;9.50;6.40;;;4.30;92.00;;;;;;6253145;28;20470;-64
2022/01/15 03:00:14;;;;;;;7.60;6.90;;;4.30;92.10;;;;;;6253303;28;20843;-63
2022/01/15 03:03:17;;;;;;;16.50;10.23;;;4.20;92.70;;;;;;6253781;28;20840;-64
2022/01/15 03:06:22;;;;;;;13.03;9.50;;;4.20;92.90;;;;;;6253970;28;20553;-63
2022/01/15 03:09:25;;;;;;;13.03;9.97;;;4.30;93.10;;;;;;6253495;28;20482;-66
2022/01/15 03:12:29;;;;;;;17.00;10.30;;;4.30;93.10;;;;;;6242561;28;20474;-65
2022/01/15 03:15:32;;;;;;;11.93;10.63;;;4.30;93.20;;;;;;6232333;28;20908;-64
2022/01/15 03:18:35;;;;;;;12.20;10.70;;;4.20;93.40;;;;;;6248175;28;20471;-64
2022/01/15 03:21:40;;;;;;;15.70;11.20;;;4.30;93.40;;;;;;6252913;28;20483;-64
2022/01/15 03:24:43;;;;;;;16.37;14.53;;;4.30;93.20;;;;;;6253433;28;20491;-64
2022/01/15 03:27:46;;;;;;;14.57;12.53;;;4.20;93.30;;;;;;6252997;28;20485;-64
2022/01/15 03:30:49;;;;;;;15.00;12.00;;;4.20;93.40;;;;;;6253113;28;20482;-64
2022/01/15 03:33:52;;;;;;;14.60;12.90;;;4.30;93.10;;;;;;6252759;28;20479;-64
2022/01/15 03:36:57;;;;;;;15.30;13.10;;;4.20;93.00;;;;;;6253128;28;20950;-64
2022/01/15 03:40:00;;;;;;;17.47;13.27;;;4.10;93.30;;;;;;6252395;28;20486;-64
2022/01/15 03:43:04;;;;;;;17.77;13.40;;;4.00;93.40;;;;;;6253019;28;20475;-64
2022/01/15 03:46:07;;;;;;;22.73;15.00;;;4.00;93.50;;;;;;6252628;28;20467;-64
2022/01/15 03:49:10;;;;;;;20.03;15.50;;;4.00;93.70;;;;;;6252490;28;20548;-64
2022/01/15 03:52:15;;;;;;;21.97;15.07;;;4.00;93.70;;;;;;6253144;28;20482;-64
2022/01/15 03:55:18;;;;;;;19.30;15.80;;;4.00;93.60;;;;;;6252521;28;20478;-64
2022/01/15 03:58:22;;;;;;;17.97;15.57;;;3.90;93.70;;;;;;6252654;28;20471;-64
2022/01/15 04:01:25;;;;;;;20.47;15.77;;;3.90;93.80;;;;;;6252293;28;20946;-64
2022/01/15 04:04:28;;;;;;;16.80;14.00;;;3.90;93.80;;;;;;6252291;28;20517;-64
2022/01/15 04:07:33;;;;;;;20.13;13.80;;;3.90;93.70;;;;;;6251705;28;20463;-64
2022/01/15 04:10:36;;;;;;;17.97;15.07;;;3.80;93.90;;;;;;6251984;28;20962;-64
2022/01/15 04:13:39;;;;;;;18.57;14.13;;;3.80;94.10;;;;;;6252493;28;21028;-64
2022/01/15 04:16:43;;;;;;;19.50;14.37;;;3.70;94.10;;;;;;6252169;28;20467;-64
2022/01/15 04:19:46;;;;;;;19.40;14.40;;;3.70;94.10;;;;;;6242516;28;20478;-64
2022/01/15 04:22:52;;;;;;;21.37;14.93;;;3.60;94.10;;;;;;6252173;28;20974;-64
2022/01/15 04:25:55;;;;;;;18.43;15.30;;;3.60;94.30;;;;;;6251406;28;20482;-64
2022/01/15 04:29:02;;;;;;;22.50;16.33;;;3.60;94.30;;;;;;6251839;28;20482;-64
2022/01/15 04:32:06;;;;;;;19.90;16.27;;;3.60;94.30;;;;;;6251542;28;20475;-64
2022/01/15 04:35:10;;;;;;;20.07;15.27;;;3.60;94.40;;;;;;6251932;28;20470;-64
2022/01/15 04:38:14;;;;;;;17.60;15.20;;;3.60;94.30;;;;;;6251708;28;20505;-64
2022/01/15 04:41:17;;;;;;;16.10;13.73;;;3.60;94.40;;;;;;6251488;28;20466;-64
2022/01/15 04:44:20;;;;;;;17.40;13.17;;;3.60;94.40;;;;;;6251638;28;20447;-64
2022/01/15 04:47:24;;;;;;;17.27;13.87;;;3.60;94.40;;;;;;6251216;28;20451;-64
2022/01/15 04:50:27;;;;;;;19.03;13.67;;;3.50;94.40;;;;;;6251142;28;20474;-64
2022/01/15 04:53:32;;;;;;;19.53;13.70;;;3.50;94.40;;;;;;6251063;28;20483;-64
2022/01/15 04:56:35;;;;;;;21.27;13.80;;;3.50;94.20;;;;;;6251411;28;20471;-63
2022/01/15 04:59:38;;;;;;;14.93;13.33;;;3.40;94.20;;;;;;6251261;28;20473;-63
2022/01/15 05:02:41;;;;;;;15.93;13.30;;;3.40;94.20;;;;;;6250692;28;20823;-63
2022/01/15 05:05:44;;;;;;;16.70;13.30;;;3.30;94.30;;;;;;6250605;28;20478;-64
2022/01/15 05:08:52;;;;;;;14.87;12.77;;;3.10;94.50;;;;;;6250773;28;20486;-64
2022/01/15 05:12:01;;;;;;;14.40;12.80;;;3.20;94.80;;;;;;6250412;28;20974;-63
2022/01/15 05:15:05;;;;;;;19.20;13.87;;;3.00;94.80;;;;;;6250776;28;20471;-64
2022/01/15 05:18:09;;;;;;;14.20;11.20;;;3.00;94.90;;;;;;6250190;28;20486;-64
2022/01/15 05:21:12;;;;;;;13.97;11.80;;;3.00;94.90;;;;;;6245778;28;20931;-64
2022/01/15 05:24:16;;;;;;;14.10;11.10;;;3.00;94.90;;;;;;6250307;28;20513;-64
2022/01/15 05:27:19;;;;;;;15.57;11.77;;;3.00;95.00;;;;;;6250586;28;20985;-64
2022/01/15 05:30:22;;;;;;;14.47;12.93;;;3.10;95.00;;;;;;6249843;28;20950;-64
2022/01/15 05:33:25;;;;;;;12.13;10.80;;;3.10;95.00;;;;;;6250158;28;20474;-64
2022/01/15 05:36:28;;;;;;;15.30;13.20;;;3.10;95.00;;;;;;6250477;28;20525;-64
2022/01/15 05:39:33;;;;;;;16.70;13.03;;;3.10;95.00;;;;;;6250360;28;20483;-64
2022/01/15 05:42:36;;;;;;;14.40;11.70;;;3.10;95.00;;;;;;6250142;28;20997;-64
2022/01/15 05:45:39;;;;;;;19.10;12.90;;;3.10;94.90;;;;;;6250214;28;20493;-64
2022/01/15 05:48:42;;;;;;;15.47;12.37;;;3.00;94.80;;;;;;6250729;28;20605;-64
2022/01/15 05:51:46;;;;;;;16.80;11.00;;;3.00;94.80;;;;;;6250228;28;20482;-64
2022/01/15 05:54:50;;;;;;;17.77;12.30;;;2.90;95.20;;;;;;6249874;28;20479;-64
2022/01/15 05:57:53;;;;;;;14.27;11.43;;;2.90;94.90;;;;;;6250252;28;20869;-64
2022/01/15 06:00:56;;;;;;;13.13;11.77;;;2.90;94.80;;;;;;6250134;28;20493;-64
2022/01/15 06:04:00;;;;;;;14.73;13.10;;;2.90;94.80;;;;;;6250284;28;20581;-64
2022/01/15 06:07:03;;;;;;;12.70;11.50;;;2.80;94.80;;;;;;6250077;28;20533;-64
2022/01/15 06:10:09;;;;;;;13.87;11.73;;;2.80;94.90;;;;;;6250402;28;20475;-64
2022/01/15 06:13:12;;;;;;;14.17;11.30;;;2.80;94.80;;;;;;6250916;28;20471;-63
2022/01/15 06:16:16;;;;;;;14.43;11.50;;;2.80;94.90;;;;;;6251529;28;20521;-63
2022/01/15 06:19:19;;;;;;;14.10;11.20;;;2.70;94.90;;;;;;6250267;28;20486;-63
2022/01/15 06:22:22;;;;;;;14.70;12.20;;;2.60;94.90;;;;;;6249973;28;20475;-63
2022/01/15 06:25:27;;;;;;;15.13;13.53;;;2.60;95.10;;;;;;6250634;28;20470;-64
2022/01/15 06:28:30;;;;;;;16.20;14.30;;;2.60;95.30;;;;;;6236250;28;20483;-63
2022/01/15 06:31:33;;;;;;;17.47;12.90;;;2.60;95.30;;;;;;6252594;28;20640;-63
2022/01/15 06:34:36;;;;;;;15.67;14.10;;;2.60;95.30;;;;;;6254396;28;20478;-64
2022/01/15 06:37:41;;;;;;;16.80;14.27;;;2.60;95.30;;;;;;6254127;28;20521;-63
2022/01/15 06:40:45;;;;;;;15.03;13.43;;;2.70;95.30;;;;;;6253995;28;20487;-64
2022/01/15 06:43:48;;;;;;;17.37;14.63;;;2.60;95.30;;;;;;6254053;28;20471;-64
2022/01/15 06:46:52;;;;;;;16.97;13.43;;;2.70;95.30;;;;;;6254272;28;20795;-64
2022/01/15 06:49:55;;;;;;;17.20;13.37;;;2.60;95.40;;;;;;6253964;28;20479;-64
2022/01/15 06:52:58;;;;;;;17.57;14.50;;;2.70;95.30;;;;;;6253964;28;21012;-64
2022/01/15 06:56:03;;;;;;;14.60;13.13;;;2.70;95.30;;;;;;6253887;28;20528;-64
2022/01/15 06:59:06;;;;;;;19.40;14.23;;;2.70;95.30;;;;;;6253459;28;20479;-64
2022/01/15 07:02:10;;;;;;;17.50;14.70;;;2.70;95.20;;;;;;6253399;28;20455;-64
2022/01/15 07:05:14;;;;;;;19.23;13.50;;;2.70;95.20;;;;;;6252855;28;20447;-64
2022/01/15 07:08:17;;;;;;;19.00;15.87;;;2.70;95.20;;;;;;6253563;28;20443;-64
2022/01/15 07:11:21;;;;;;;19.13;13.97;;;2.80;95.30;;;;;;6253300;28;20536;-64
2022/01/15 07:14:24;;;;;;;19.57;15.30;;;2.70;95.30;;;;;;6252832;28;20907;-63
2022/01/15 07:17:28;;;;;;;17.77;15.37;;;2.70;95.30;;;;;;6238850;28;20963;-64
2022/01/15 07:20:31;;;;;;;16.67;14.97;;;2.70;95.30;;;;;;6228795;28;20546;-64
2022/01/15 07:23:34;;;;;;;20.00;15.23;;;2.70;95.10;;;;;;6228549;28;20797;-64
2022/01/15 07:26:38;;;;;;;21.20;15.60;;;2.80;95.10;;;;;;6228625;28;20967;-64
2022/01/15 07:29:42;;;;;;;20.57;16.97;;;2.90;95.20;;;;;;6218396;28;20483;-64
2022/01/15 07:32:46;;;;;;;21.70;16.40;;;3.00;95.10;;;;;;6228653;28;20472;-64
2022/01/15 07:35:50;;;;;;;22.37;16.30;;;3.10;94.90;;;;;;6228677;28;20956;-63
2022/01/15 07:38:53;;;;;;;20.10;16.30;;;3.20;94.80;;;;;;6227237;28;20538;-64
2022/01/15 07:42:00;;;;;;;24.47;16.07;;;3.30;94.90;;;;;;6226407;28;20514;-64
2022/01/15 07:45:04;;;;;;;20.40;16.67;;;3.40;94.60;;;;;;6227174;28;20464;-64
2022/01/15 07:48:07;;;;;;;18.40;16.47;;;3.50;94.40;;;;;;6226516;28;20967;-64
2022/01/15 07:51:10;;;;;;;19.60;16.20;;;3.60;94.10;;;;;;6226539;28;20957;-64
2022/01/15 07:54:13;;;;;;;18.07;16.17;;;3.70;94.00;;;;;;6227454;28;20485;-64
2022/01/15 07:57:18;;;;;;;23.43;15.93;;;3.80;93.80;;;;;;6228021;28;20472;-64
2022/01/15 08:00:22;;;;;;;26.40;18.70;;;3.70;93.60;;;;;;6228459;28;20495;-65
2022/01/15 08:03:25;;;;;;;21.13;17.77;;;3.80;93.80;;;;;;6228001;28;20487;-64
2022/01/15 08:06:29;;;;;;;19.90;15.50;;;3.70;93.90;;;;;;6228225;28;20472;-64
2022/01/15 08:09:32;;;;;;;21.00;17.20;;;3.70;93.90;;;;;;6227440;28;20488;-64
2022/01/15 08:12:43;;;;;;;19.90;17.30;;;3.80;93.90;;;;;;6227437;28;20483;-64
2022/01/15 08:15:50;;;;;;;20.50;17.27;;;3.80;94.00;;;;;;6227482;28;20480;-64
2022/01/15 08:18:53;;;;;;;28.77;19.50;;;3.80;94.00;;;;;;6226850;28;20476;-64
2022/01/15 08:21:57;;;;;;;23.27;18.17;;;3.80;94.10;;;;;;6227347;28;20482;-64
2022/01/15 08:25:00;;;;;;;20.97;18.67;;;3.90;94.30;;;;;;6227251;28;20475;-64
2022/01/15 08:28:05;;;;;;;22.33;17.23;;;4.00;94.30;;;;;;6227372;28;20787;-64
2022/01/15 08:31:08;;;;;;;20.70;17.60;;;4.10;94.20;;;;;;6227127;28;20865;-64
2022/01/15 08:34:11;;;;;;;23.10;17.43;;;4.20;94.00;;;;;;6222336;28;20468;-64
2022/01/15 08:37:14;;;;;;;20.90;18.37;;;4.30;93.70;;;;;;6227081;28;20483;-64
2022/01/15 08:40:20;;;;;;;23.00;17.80;;;4.30;93.80;;;;;;6227051;28;20491;-65
2022/01/15 08:43:25;;;;;;;22.00;16.80;;;4.30;93.80;;;;;;6226745;28;20468;-64
2022/01/15 08:46:28;;;;;;;22.83;17.13;;;4.40;94.20;;;;;;6226767;28;20551;-65
2022/01/15 08:49:31;;;;;;;20.77;17.33;;;4.50;93.90;;;;;;6226550;28;20630;-64
2022/01/15 08:52:35;;;;;;;23.37;18.70;;;4.60;93.90;;;;;;6225724;28;20480;-64
2022/01/15 08:55:40;;;;;;;23.60;18.33;;;4.70;93.80;;;;;;6226226;28;20487;-64
2022/01/15 08:58:44;;;;;;;21.33;17.23;;;4.90;93.70;;;;;;6226301;28;20472;-64
2022/01/15 09:01:48;;;;;;;21.50;17.50;;;5.00;93.50;;;;;;6226662;28;20806;-64
2022/01/15 09:04:53;;;;;;;19.40;15.97;;;5.20;93.50;;;;;;6226234;28;20480;-64
2022/01/15 09:07:56;;;;;;;20.47;16.20;;;5.30;93.30;;;;;;6226199;28;20479;-64
2022/01/15 09:10:59;;;;;;;22.53;16.80;;;5.50;93.30;;;;;;6226057;28;20490;-65
2022/01/15 09:14:04;;;;;;;20.27;16.37;;;5.70;93.20;;;;;;6226207;28;20471;-65
2022/01/15 09:17:07;;;;;;;18.87;15.20;;;5.90;92.90;;;;;;6226533;28;20479;-65
2022/01/15 09:20:11;;;;;;;18.80;15.07;;;6.10;92.70;;;;;;6225950;28;20521;-65
2022/01/15 09:23:15;;;;;;;18.03;13.00;;;6.20;92.40;;;;;;6225901;28;20444;-65
2022/01/15 09:26:22;;;;;;;18.80;12.80;;;6.30;92.40;;;;;;6226540;28;20451;-65
2022/01/15 09:32:59;;;;;;;12.20;11.00;;;6.50;92.30;;;;;;6151208;28;20485;-65
2022/01/15 09:36:04;;;;;;;16.20;12.47;;;6.50;92.20;;;;;;6226076;28;20974;-65
2022/01/15 09:39:07;;;;;;;13.77;11.17;;;6.50;92.40;;;;;;6216785;28;20483;-65
2022/01/15 09:42:11;;;;;;;12.93;11.57;;;6.60;92.40;;;;;;6226320;28;20483;-65
2022/01/15 09:45:18;;;;;;;12.23;10.37;;;6.70;92.20;;;;;;6226104;28;20557;-65
2022/01/15 09:48:27;;;;;;;15.17;12.43;;;6.80;92.20;;;;;;6225878;28;20476;-65
2022/01/15 09:51:30;;;;;;;14.37;10.40;;;6.80;92.10;;;;;;6225568;28;20492;-65
2022/01/15 09:54:35;;;;;;;13.33;11.23;;;6.80;92.30;;;;;;6225697;28;20478;-65
2022/01/15 09:57:40;;;;;;;13.20;10.37;;;6.90;92.20;;;;;;6225423;28;21003;-65
2022/01/15 10:00:45;;;;;;;11.60;9.97;;;6.90;92.20;;;;;;6225757;28;20482;-64
2022/01/15 10:03:49;;;;;;;13.50;10.27;;;6.90;92.40;;;;;;6231421;28;20478;-64
2022/01/15 10:07:13;;;;;;;12.90;10.20;;;6.90;92.30;;;;;;6245346;28;20476;-64
2022/01/15 10:10:20;;;;;;;12.83;9.90;;;6.90;92.20;;;;;;6238744;28;20487;-64
2022/01/15 10:13:26;;;;;;;12.70;10.73;;;7.10;92.20;;;;;;6232828;28;21017;-64
2022/01/15 10:16:32;;;;;;;14.33;10.73;;;7.10;92.10;;;;;;6242401;28;20478;-64
2022/01/15 10:19:37;;;;;;;14.47;11.07;;;7.10;92.40;;;;;;6254550;28;20552;-64
2022/01/15 10:22:42;;;;;;;14.70;10.50;;;7.10;92.30;;;;;;6254239;28;20962;-64
2022/01/15 10:25:46;;;;;;;11.63;9.70;;;7.20;92.00;;;;;;6236199;28;20475;-64
2022/01/15 10:28:54;;;;;;;14.47;12.40;;;7.30;91.80;;;;;;6229674;28;20484;-64
2022/01/15 10:31:59;;;;;;;13.93;10.97;;;7.30;91.70;;;;;;6229774;28;20472;-64
2022/01/15 10:35:10;;;;;;;14.10;10.60;;;7.40;91.50;;;;;;6253264;28;20479;-65
2022/01/15 10:38:15;;;;;;;10.83;9.70;;;7.50;91.60;;;;;;6241908;28;20476;-64
2022/01/15 10:41:34;;;;;;;12.80;11.20;;;7.60;91.20;;;;;;6225621;28;20938;-64
2022/01/15 10:44:38;;;;;;;11.13;9.97;;;7.80;91.20;;;;;;6251632;28;20479;-64
2022/01/15 10:47:47;;;;;;;11.43;10.23;;;7.90;90.90;;;;;;6251170;28;20479;-64
2022/01/15 10:50:57;;;;;;;11.43;10.30;;;8.10;90.70;;;;;;6250361;28;20536;-64
2022/01/15 10:54:06;;;;;;;11.90;10.70;;;8.20;90.90;;;;;;6253685;28;20946;-63
2022/01/15 10:57:10;;;;;;;11.53;10.00;;;8.10;90.30;;;;;;6253684;28;20501;-64
2022/01/15 11:00:17;;;;;;;15.17;10.43;;;8.10;90.40;;;;;;6253533;28;20540;-64
2022/01/15 11:03:22;;;;;;;14.37;12.20;;;8.20;90.20;;;;;;6253801;28;20471;-64
2022/01/15 11:06:35;;;;;;;14.57;12.97;;;8.40;90.10;;;;;;6253623;28;20463;-63
2022/01/15 11:09:38;;;;;;;12.73;11.43;;;8.80;89.70;;;;;;6253493;28;20486;-65
2022/01/15 11:12:42;;;;;;;11.33;10.10;;;8.90;88.30;;;;;;6252805;28;20471;-64
2022/01/15 11:15:47;;;;;;;11.67;10.47;;;9.20;87.60;;;;;;6243757;28;20471;-64
2022/01/15 11:18:54;;;;;;;11.50;10.30;;;9.40;86.40;;;;;;6228339;28;20492;-64
2022/01/15 11:21:58;;;;;;;9.13;8.23;;;10.10;84.30;;;;;;6233088;28;20471;-64
2022/01/15 11:25:02;;;;;;;10.47;9.47;;;13.70;77.20;;;;;;6252523;28;20489;-64
2022/01/15 11:28:06;;;;;;;9.73;8.80;;;17.60;60.80;;;;;;6252813;28;20463;-63
2022/01/15 11:31:11;;;;;;;10.77;9.00;;;21.40;48.30;;;;;;6252478;28;20471;-65
2022/01/15 11:34:20;;;;;;;10.30;9.40;;;24.20;39.70;;;;;;6253028;28;20236;-65
2022/01/15 11:37:23;;;;;;;12.23;11.20;;;24.70;35.30;;;;;;6252400;28;20362;-65
2022/01/15 11:40:46;;;;;;;12.00;10.90;;;25.80;33.70;;;;;;6252882;28;20228;-65
2022/01/15 11:43:50;;;;;;;12.77;11.57;;;27.40;31.40;;;;;;6252646;28;20569;-65
2022/01/15 11:46:55;;;;;;;12.60;11.40;;;28.80;28.70;;;;;;6248280;28;20228;-65
2022/01/15 11:50:19;;;;;;;10.70;9.70;;;29.80;27.30;;;;;;6252462;28;20236;-65
2022/01/15 11:53:47;;;;;;;12.37;11.27;;;31.00;25.40;;;;;;6252904;28;20220;-66
2022/01/15 11:56:50;;;;;;;11.80;10.80;;;30.90;24.50;;;;;;6253423;28;20231;-68
2022/01/15 11:59:55;;;;;;;12.50;11.33;;;31.40;24.10;;;;;;6252468;28;20246;-65
2022/01/15 12:03:07;;;;;;;12.27;11.13;;;31.10;23.90;;;;;;6252432;28;20228;-65
2022/01/15 12:06:12;;;;;;;11.50;10.60;;;31.70;23.80;;;;;;6252050;28;20695;-66
2022/01/15 12:09:33;;;;;;;14.40;12.70;;;31.70;23.10;;;;;;6251265;28;20851;-67
2022/01/15 12:12:47;;;;;;;13.00;11.83;;;31.10;23.50;;;;;;6237666;28;20811;-66
2022/01/15 12:16:31;;;;;;;11.90;10.90;;;32.10;22.70;;;;;;6236864;28;20223;-65
2022/01/15 12:19:37;;;;;;;13.30;12.27;;;31.80;22.70;;;;;;6251455;28;20285;-66
2022/01/15 12:22:43;;;;;;;13.57;12.30;;;31.30;22.70;;;;;;6251472;28;20231;-67
2022/01/15 12:25:47;;;;;;;14.20;13.03;;;31.60;22.80;;;;;;6251180;28;20243;-66
2022/01/15 12:28:50;;;;;;;14.38;13.18;;;32.10;22.30;;;;;;6251492;28;20219;-66
2022/01/15 12:31:53;;;;;;;13.77;12.65;;;31.90;22.20;;;;;;6250904;28;20227;-65
2022/01/15 12:34:58;;;;;;;13.50;12.40;;;32.20;22.10;;;;;;6251106;28;20227;-65
2022/01/15 12:38:06;;;;;;;12.95;11.95;;;32.60;21.80;;;;;;6250879;28;20235;-66
2022/01/15 12:41:10;;;;;;;14.68;13.38;;;32.90;21.30;;;;;;6251048;28;20251;-66
2022/01/15 12:44:14;;;;;;;13.70;12.45;;;32.40;21.70;;;;;;6251222;28;20223;-66
2022/01/15 12:47:18;;;;;;;14.07;11.37;;;32.10;21.90;;;;;;6250765;28;20693;-66
2022/01/15 12:50:21;;;;;;;13.23;11.90;;;31.10;22.20;;;;;;6251009;28;20266;-66
2022/01/15 12:53:28;;;;;;;12.60;11.70;;;30.60;22.80;;;;;;6250893;28;20218;-66
2022/01/15 12:56:39;;;;;;;11.77;10.77;;;31.10;22.50;;;;;;6250964;28;20245;-66
2022/01/15 12:59:43;;;;;;;11.37;10.47;;;31.10;22.40;;;;;;6251143;28;20273;-67
2022/01/15 13:02:48;;;;;;;11.20;10.20;;;31.30;22.20;;;;;;6250599;28;20306;-65
2022/01/15 13:05:56;;;;;;;11.53;10.57;;;30.90;22.40;;;;;;6250578;28;20679;-65
2022/01/15 13:09:01;;;;;;;11.83;10.77;;;30.00;22.80;;;;;;6250844;28;20235;-65
2022/01/15 13:12:07;;;;;;;12.37;11.20;;;29.00;23.50;;;;;;6240827;28;20237;-65
2022/01/15 13:15:20;;;;;;;12.43;11.13;;;29.00;24.00;;;;;;6229370;28;20237;-66
2022/01/15 13:18:24;;;;;;;12.60;11.50;;;29.00;23.80;;;;;;6250501;28;20240;-66
2022/01/15 13:21:28;;;;;;;12.93;11.83;;;28.60;23.80;;;;;;6250210;28;20237;-65
2022/01/15 13:24:33;;;;;;;12.83;11.73;;;26.70;25.80;;;;;;6250413;28;20236;-65
2022/01/15 13:27:36;;;;;;;14.50;13.20;;;26.90;25.70;;;;;;6249560;28;20577;-66
2022/01/15 13:30:39;;;;;;;12.80;11.60;;;27.50;25.30;;;;;;6249728;28;20864;-66
2022/01/15 13:33:44;;;;;;;11.73;10.63;;;27.60;25.30;;;;;;6250038;28;20237;-67
2022/01/15 13:36:48;;;;;;;12.83;11.83;;;27.40;25.10;;;;;;6249828;28;20246;-67
2022/01/15 13:39:52;;;;;;;12.77;11.63;;;27.60;25.20;;;;;;6248943;28;20241;-67
2022/01/15 13:42:56;;;;;;;12.17;11.20;;;27.70;25.00;;;;;;6249435;28;20588;-66
2022/01/15 13:46:07;;;;;;;12.53;11.43;;;27.20;25.20;;;;;;6249518;28;20233;-66
2022/01/15 13:49:13;;;;;;;12.33;11.30;;;27.30;25.50;;;;;;6249079;28;20244;-66
2022/01/15 13:55:50;;;;;;;12.73;11.67;;;27.30;25.30;;;;;;6240847;28;20237;-66
2022/01/15 13:58:56;;;;;;;13.50;12.30;;;26.90;25.40;;;;;;6249686;28;20242;-66
2022/01/15 14:02:01;;;;;;;12.67;11.57;;;26.50;25.90;;;;;;6249707;28;20580;-66
2022/01/15 14:05:15;;;;;;;12.43;11.33;;;26.40;26.10;;;;;;6249504;28;20677;-66
2022/01/15 14:08:18;;;;;;;13.10;11.83;;;26.50;26.10;;;;;;6249713;28;20232;-66
2022/01/15 14:11:22;;;;;;;12.90;11.70;;;26.40;26.10;;;;;;6245284;28;20229;-66
2022/01/15 14:14:26;;;;;;;13.13;11.87;;;25.60;26.40;;;;;;6225197;28;20220;-65
2022/01/15 14:17:29;;;;;;;13.57;12.47;;;24.80;27.70;;;;;;6247436;28;20533;-66
2022/01/15 14:21:05;;;;;;;13.03;11.90;;;24.80;27.70;;;;;;6249806;28;20640;-65
2022/01/15 14:24:20;;;;;;;12.23;11.13;;;24.10;28.10;;;;;;6249332;28;20232;-65
2022/01/15 14:27:26;;;;;;;13.50;12.40;;;22.90;29.10;;;;;;6249327;28;20228;-65
2022/01/15 14:30:29;;;;;;;14.30;12.43;;;21.50;30.30;;;;;;6249781;28;20243;-66
2022/01/15 14:33:32;;;;;;;11.57;10.47;;;20.20;32.00;;;;;;6249845;28;20688;-64
2022/01/15 14:36:36;;;;;;;11.20;10.10;;;19.00;33.80;;;;;;6250393;28;20235;-64
2022/01/15 14:39:41;;;;;;;12.87;11.53;;;17.90;35.70;;;;;;6249741;28;20520;-64
2022/01/15 14:42:46;;;;;;;12.90;11.57;;;16.80;37.20;;;;;;6251505;28;20566;-64
2022/01/15 14:45:49;;;;;;;13.73;12.40;;;15.50;39.50;;;;;;6251113;28;20529;-64
2022/01/15 14:48:52;;;;;;;13.00;11.67;;;14.70;41.00;;;;;;6249207;28;20467;-64
2022/01/15 14:51:55;;;;;;;12.43;11.23;;;14.00;42.60;;;;;;6250521;28;21059;-65
2022/01/15 14:54:58;;;;;;;13.87;12.37;;;13.30;44.30;;;;;;6253450;28;20482;-64
2022/01/15 14:58:03;;;;;;;12.63;11.40;;;12.60;46.10;;;;;;6251991;28;20466;-65
2022/01/15 15:01:06;;;;;;;12.60;11.30;;;12.00;47.80;;;;;;6252278;28;20553;-64
2022/01/15 15:04:10;;;;;;;12.60;11.40;;;11.50;49.40;;;;;;6252175;28;20553;-64
2022/01/15 15:07:13;;;;;;;12.80;11.50;;;11.10;50.70;;;;;;6251677;28;20501;-64
2022/01/15 15:10:17;;;;;;;13.07;11.20;;;10.80;52.10;;;;;;6250225;28;20962;-64
2022/01/15 15:13:24;;;;;;;15.30;10.47;;;10.40;53.60;;;;;;6251366;28;20471;-64
2022/01/15 15:16:27;;;;;;;14.50;12.47;;;10.10;55.10;;;;;;6251989;28;20474;-64
2022/01/15 15:19:30;;;;;;;12.30;11.07;;;9.90;57.40;;;;;;6251502;28;20485;-64
2022/01/15 15:22:33;;;;;;;12.37;11.17;;;9.70;58.20;;;;;;6251807;28;20818;-64
2022/01/15 15:25:37;;;;;;;14.33;12.90;;;9.40;59.60;;;;;;6253018;28;20989;-64
2022/01/15 15:28:42;;;;;;;12.63;10.47;;;9.30;61.20;;;;;;6252959;28;20463;-64
2022/01/15 15:31:45;;;;;;;13.27;11.97;;;9.10;62.60;;;;;;6252355;28;20479;-63
2022/01/15 15:34:48;;;;;;;14.93;13.00;;;9.00;63.80;;;;;;6252605;28;20467;-63
2022/01/15 15:37:56;;;;;;;13.73;11.87;;;8.90;64.80;;;;;;6252788;28;20539;-63
2022/01/15 15:40:59;;;;;;;15.10;13.60;;;8.80;66.60;;;;;;6252355;28;20577;-63
2022/01/15 15:44:04;;;;;;;16.83;12.70;;;8.70;67.50;;;;;;6252562;28;20467;-63
2022/01/15 15:47:07;;;;;;;16.67;14.07;;;8.60;68.50;;;;;;6252266;28;20529;-63
2022/01/15 15:50:12;;;;;;;15.77;13.83;;;8.50;69.60;;;;;;6252084;28;20471;-63
2022/01/15 15:53:16;;;;;;;15.03;13.43;;;8.40;70.20;;;;;;6252214;28;20485;-63
2022/01/15 15:56:19;;;;;;;20.73;13.60;;;8.30;71.00;;;;;;6252146;28;20449;-63
2022/01/15 15:59:24;;;;;;;16.83;13.20;;;8.30;71.70;;;;;;6252632;28;20486;-63
2022/01/15 16:02:27;;;;;;;17.70;14.07;;;8.20;72.40;;;;;;6247178;28;20451;-63
2022/01/15 16:05:31;;;;;;;17.83;13.60;;;8.10;73.10;;;;;;6251624;28;20447;-63
2022/01/15 16:08:37;;;;;;;18.63;14.00;;;8.10;73.70;;;;;;6251884;28;20459;-66
2022/01/15 16:11:40;;;;;;;20.67;13.90;;;8.10;74.50;;;;;;6251282;28;20470;-64
2022/01/15 16:14:44;;;;;;;16.37;14.47;;;8.00;75.30;;;;;;6252061;28;20463;-65